Terminal Aerodrome Forecast
Issued by NWS

Home | Current Version | Previous Version | Text Only | Print | Product List | Glossary On
Versions: 1 2 3 4 5 6 7 8 9 10 11 12 13 14 15 16 17 18 19 20 21
000
FTUS43 KILX 161700
TAFDEC
TAF
KDEC 161734Z 1618/1718 17021G30KT P6SM SCT150
     FM170100 16013KT P6SM SCT150
     FM170400 17008KT P6SM SCT100
     FM171000 18009KT P6SM BKN070
     FM171500 25008KT P6SM BKN050=

USA.gov is the U.S. government's official web portal to all federal, state and local government web resources and services.